Portada
METAR-TAF:

METAR-TAF

Aeroports :

Doha, Qatar

latitud: 25-15-40N, longitud: 051-33-54E, altitud: 11 m

Observació

L'informe es va fer fa 27 minuts, a les 12:30 UTC
Vent 9 kt del Nord-Est
Temperatura 30°C
Humitat 29%
Pressió 1009 hPa
Visibilitat 10 km o més
sense núvols per sota de 1500 mi sense presència de cumulonimbus.

METAR: OTBD 071230Z AUTO 05009KT CAVOK 30/10 Q1009 NOSIG

Hora: 15:57 (12:57 UTC)

Pronòstic

L'informe es va fer fa 1 hora i 54 minuts, a les 11:03 UTC
Pronòstic vàlid del 07 a les 12 UTC al 08 a les 18 UTC
Vent 10 kt del Est
Visibilitat 10 km o més
sense núvols per sota de 1500 mi sense presència de cumulonimbus.
Evolucionant progressivament
l' 07 a les 21 UTC al 07 a les 23 UTC
Vent 7 kt del Sud

TAF: OTBD 071103Z 0712/0818 10010KT CAVOK BECMG 0721/0723 17007KT

Observacions i pronòstics meteorològics de més de 4000 aeroports (METAR i TAF).

Les estacions disponibles són els punts grocs i vermells al mapa.

Posi el ratolí al punt desitjat per veure el nom de l'estació.

Feu clic per veure les observacions i els pronòstics meteorològics.

Per canviar el mapa: feu clic els botons verds amb una creu de color negre per apropar; al botó verd amb un guió per allunyar la imatge; o en les fletxes verdes per a mapes adjacents.


METAR-TAF: